Time;durP1;ratioP1;P1;durP2;ratioP2;P2;SDS_P1;SDS_P2;PMS_P1;PMS_P2;Temp;Humidity;BMP_temperature;BMP_pressure;BME280_temperature;BME280_humidity;BME280_pressure;Samples;Min_cycle;Max_cycle;Signal;HPM_P1;HPM_P2
2023/03/19 09:17:24;;;;;;;7.80;2.80;;;16.70;99.90;;;;;;5161336;22;20064;-90
2023/03/19 09:19:50;;;;;;;5.75;2.75;;;15.90;99.80;;;;;;5024113;28;20029;-91
2023/03/19 09:22:15;;;;;;;7.80;2.90;;;15.40;99.90;;;;;;5023611;28;20387;-92
2023/03/19 09:25:32;;;;;;;8.63;2.72;;;15.60;99.90;;;;;;5024915;28;20040;-91
2023/03/19 09:27:58;;;;;;;5.93;2.88;;;15.40;99.90;;;;;;5036918;28;20025;-92
2023/03/19 09:30:24;;;;;;;6.57;3.17;;;15.20;99.90;;;;;;5041297;28;20549;-91
2023/03/19 09:36:43;;;;;;;6.63;2.47;;;14.30;99.90;;;;;;5056252;28;20032;-90
2023/03/19 09:39:09;;;;;;;6.47;2.83;;;14.50;99.90;;;;;;5040994;28;20158;-91
2023/03/19 09:42:25;;;;;;;6.35;3.70;;;15.10;99.90;;;;;;5024112;28;20083;-91
2023/03/19 09:44:52;;;;;;;5.38;3.13;;;16.20;99.90;;;;;;5024862;28;20098;-91
2023/03/19 09:47:31;;;;;;;7.15;3.05;;;16.60;99.90;;;;;;5040966;28;20040;-91
2023/03/19 09:50:05;;;;;;;5.97;3.60;;;16.70;98.60;;;;;;5029768;28;20029;-91
2023/03/19 09:52:59;;;;;;;8.00;3.60;;;16.60;96.70;;;;;;5040743;28;20033;-91
2023/03/19 09:55:37;;;;;;;7.53;3.03;;;16.60;95.80;;;;;;5022688;28;20026;-90
2023/03/19 09:58:25;;;;;;;4.65;2.75;;;17.10;96.70;;;;;;5036400;28;20021;-91
2023/03/19 10:00:52;;;;;;;7.22;2.95;;;17.90;96.40;;;;;;5024045;28;20037;-91
2023/03/19 10:03:24;;;;;;;10.10;3.42;;;18.00;93.70;;;;;;5040665;28;20040;-91
2023/03/19 10:06:22;;;;;;;8.40;2.97;;;18.30;93.00;;;;;;5025667;28;20360;-91
2023/03/19 10:09:03;;;;;;;4.97;2.58;;;18.20;92.60;;;;;;5032415;28;20074;-91
2023/03/19 10:12:13;;;;;;;6.13;2.75;;;18.20;92.70;;;;;;5041577;28;20553;-91
2023/03/19 10:15:08;;;;;;;5.28;2.75;;;17.80;91.50;;;;;;5039501;28;20033;-90
2023/03/19 10:17:47;;;;;;;7.43;2.70;;;17.50;93.20;;;;;;5040113;28;20024;-91
2023/03/19 10:20:28;;;;;;;5.20;3.08;;;18.00;93.20;;;;;;5024712;28;20029;-92
2023/03/19 10:23:05;;;;;;;4.20;2.92;;;18.20;91.80;;;;;;5034395;28;20037;-92
2023/03/19 10:25:32;;;;;;;5.63;3.40;;;17.70;92.30;;;;;;5039809;28;20037;-91
2023/03/19 10:28:15;;;;;;;6.25;3.08;;;17.70;92.10;;;;;;5034640;28;20047;-92
2023/03/19 10:30:47;;;;;;;5.50;2.88;;;18.00;92.00;;;;;;5023593;28;20036;-91
2023/03/19 10:33:22;;;;;;;6.88;2.78;;;18.40;90.80;;;;;;5023774;28;20061;-91
2023/03/19 10:36:04;;;;;;;5.30;2.95;;;18.20;89.60;;;;;;5022036;28;20025;-91
2023/03/19 10:38:32;;;;;;;8.80;3.28;;;17.80;91.10;;;;;;5022158;28;20060;-91
2023/03/19 10:41:26;;;;;;;7.22;2.65;;;18.10;91.90;;;;;;5021147;28;20029;-91
2023/03/19 10:43:55;;;;;;;5.03;3.38;;;18.30;90.60;;;;;;5021555;28;20127;-91
2023/03/19 10:46:21;;;;;;;6.13;2.90;;;18.20;91.30;;;;;;5024248;28;20061;-90
2023/03/19 10:48:47;;;;;;;6.10;3.00;;;18.30;90.70;;;;;;5024170;28;20502;-90
2023/03/19 10:51:21;;;;;;;5.95;2.75;;;18.10;91.20;;;;;;5038815;28;20059;-89
2023/03/19 10:53:47;;;;;;;7.25;3.17;;;18.10;91.50;;;;;;5043409;28;20422;-91
2023/03/19 10:56:17;;;;;;;5.13;2.70;;;17.40;92.10;;;;;;5051220;28;20078;-90
2023/03/19 10:59:00;;;;;;;5.93;2.90;;;17.00;92.70;;;;;;5040094;28;20017;-90
2023/03/19 11:01:30;;;;;;;8.75;3.20;;;17.80;93.30;;;;;;5021390;28;20283;-90
2023/03/19 11:03:58;;;;;;;6.93;3.37;;;18.30;93.80;;;;;;5043269;28;20021;-90
2023/03/19 11:06:25;;;;;;;5.53;3.22;;;18.60;91.60;;;;;;5025296;28;20083;-90
2023/03/19 11:09:01;;;;;;;6.25;3.17;;;18.60;92.50;;;;;;5039039;28;20124;-89
2023/03/19 11:18:39;;;;;;;7.90;3.05;;;18.10;92.30;;;;;;5064509;28;20048;-91
2023/03/19 11:21:19;;;;;;;5.53;3.13;;;18.00;93.30;;;;;;5051581;28;20035;-91
2023/03/19 11:23:52;;;;;;;8.40;2.95;;;18.80;91.70;;;;;;5049097;28;20025;-90
2023/03/19 11:26:20;;;;;;;7.50;3.10;;;19.40;90.50;;;;;;5055153;28;20025;-89
2023/03/19 11:28:50;;;;;;;4.43;2.75;;;19.40;90.00;;;;;;5038654;28;20092;-90
2023/03/19 11:31:27;;;;;;;5.85;2.88;;;18.40;90.70;;;;;;5039901;28;20036;-91
2023/03/19 11:34:22;;;;;;;6.57;2.88;;;17.70;91.50;;;;;;5046765;28;20463;-90
2023/03/19 11:36:57;;;;;;;8.32;3.08;;;17.20;93.80;;;;;;5039358;28;20084;-91
2023/03/19 11:39:44;;;;;;;13.25;3.30;;;17.30;94.10;;;;;;5047003;28;20055;-91
2023/03/19 11:42:35;;;;;;;6.03;3.65;;;17.30;94.10;;;;;;5051273;28;20060;-91
2023/03/19 11:45:27;;;;;;;6.55;2.85;;;18.00;93.90;;;;;;5070218;28;20035;-89
2023/03/19 11:47:56;;;;;;;9.27;4.40;;;18.40;92.50;;;;;;5072485;28;20101;-91
2023/03/19 11:50:26;;;;;;;5.22;3.05;;;18.60;91.80;;;;;;5035709;28;20024;-90
2023/03/19 11:53:07;;;;;;;7.70;3.08;;;18.50;90.70;;;;;;5035135;28;20085;-89
2023/03/19 11:56:03;;;;;;;7.40;3.22;;;18.60;90.90;;;;;;5056910;28;20013;-90
2023/03/19 11:58:51;;;;;;;5.35;2.67;;;19.10;90.80;;;;;;5054809;28;20024;-88
2023/03/19 12:01:59;;;;;;;9.30;3.45;;;19.60;88.20;;;;;;5052086;28;20026;-90
2023/03/19 12:08:12;;;;;;;5.32;3.10;;;18.00;90.10;;;;;;5021728;28;20032;-91
2023/03/19 12:10:47;;;;;;;7.18;3.22;;;17.50;91.70;;;;;;5035432;28;20085;-91
2023/03/19 12:13:44;;;;;;;8.27;3.13;;;17.20;92.30;;;;;;5043387;28;20021;-92
2023/03/19 12:16:20;;;;;;;6.53;2.55;;;17.00;93.90;;;;;;5042575;28;20021;-90
2023/03/19 12:19:12;;;;;;;7.45;3.08;;;16.80;91.50;;;;;;5042837;28;20033;-91
2023/03/19 12:21:51;;;;;;;7.43;2.85;;;16.40;92.50;;;;;;5043113;28;20029;-89
2023/03/19 12:24:33;;;;;;;5.18;2.80;;;17.00;93.00;;;;;;5044277;28;20024;-91
2023/03/19 12:27:08;;;;;;;5.88;3.13;;;17.30;93.00;;;;;;5041742;28;20021;-90
2023/03/19 12:29:48;;;;;;;14.48;3.05;;;17.60;92.40;;;;;;5042602;28;20104;-91
2023/03/19 12:32:54;;;;;;;5.40;2.65;;;17.20;90.80;;;;;;5044102;28;20067;-91
2023/03/19 12:35:28;;;;;;;7.65;3.10;;;16.40;92.30;;;;;;5059183;28;20563;-91
2023/03/19 12:38:19;;;;;;;9.70;3.28;;;16.20;93.10;;;;;;5038503;28;20044;-90
2023/03/19 12:40:53;;;;;;;6.15;2.90;;;16.00;93.90;;;;;;5035653;28;20104;-90
2023/03/19 12:43:38;;;;;;;4.78;2.55;;;16.20;93.10;;;;;;5043581;28;20029;-90
2023/03/19 12:46:11;;;;;;;45.00;22.70;;;16.50;93.10;;;;;;5044436;28;20033;-91
2023/03/19 12:49:22;;;;;;;12.20;6.35;;;16.30;94.00;;;;;;5042604;28;20033;-92
2023/03/19 12:51:55;;;;;;;10.07;3.60;;;17.00;93.80;;;;;;5035000;28;20041;-91
2023/03/19 12:54:30;;;;;;;5.63;2.85;;;17.60;90.80;;;;;;5059921;28;20092;-92
2023/03/19 12:57:24;;;;;;;5.50;3.28;;;17.90;92.70;;;;;;5026954;28;20056;-90
2023/03/19 13:00:15;;;;;;;7.90;2.80;;;18.00;91.40;;;;;;5059112;28;20029;-89
2023/03/19 13:02:55;;;;;;;6.35;3.20;;;17.50;92.10;;;;;;5041504;28;20040;-90
2023/03/19 13:05:34;;;;;;;8.35;2.53;;;17.10;92.90;;;;;;5055177;28;20020;-90
2023/03/19 13:08:33;;;;;;;10.57;3.38;;;16.60;93.20;;;;;;5055342;28;20009;-91
2023/03/19 13:11:01;;;;;;;8.15;3.47;;;16.10;94.90;;;;;;5059289;28;20028;-90
2023/03/19 13:13:30;;;;;;;7.60;3.40;;;15.90;95.50;;;;;;5041910;28;20021;-92
2023/03/19 13:16:14;;;;;;;8.88;3.83;;;15.40;96.60;;;;;;5040734;28;20025;-90
2023/03/19 13:19:17;;;;;;;8.60;3.90;;;15.00;98.50;;;;;;5031636;28;20101;-91
2023/03/19 13:21:48;;;;;;;9.40;4.40;;;14.60;99.90;;;;;;5052630;28;20028;-90
2023/03/19 13:24:35;;;;;;;7.60;4.15;;;14.00;99.90;;;;;;5037668;28;20036;-91
2023/03/19 13:27:01;;;;;;;7.35;3.45;;;12.70;99.90;;;;;;5027687;28;20060;-91
2023/03/19 13:29:29;;;;;;;7.85;4.32;;;12.00;99.90;;;;;;5024990;28;20057;-91
2023/03/19 13:32:09;;;;;;;8.10;5.03;;;11.70;99.90;;;;;;5023079;28;20060;-91
2023/03/19 13:34:36;;;;;;;13.88;6.20;;;11.60;99.90;;;;;;5024867;28;20032;-90
2023/03/19 13:37:17;;;;;;;10.93;5.05;;;11.90;99.90;;;;;;5020081;28;20033;-91
2023/03/19 13:39:47;;;;;;;17.33;4.75;;;12.30;99.90;;;;;;5026165;28;20100;-91
2023/03/19 13:42:37;;;;;;;8.82;4.25;;;12.90;99.90;;;;;;5042218;28;20029;-91
2023/03/19 13:49:26;;;;;;;12.30;3.83;;;13.30;99.90;;;;;;5037261;28;20127;-91
2023/03/19 13:52:17;;;;;;;11.05;3.53;;;13.40;99.90;;;;;;5025352;28;20464;-91
2023/03/19 13:54:46;;;;;;;9.85;4.75;;;13.40;99.90;;;;;;4983553;28;20038;-91
2023/03/19 13:57:13;;;;;;;10.38;4.65;;;13.40;99.90;;;;;;5024225;28;20057;-91
2023/03/19 13:59:45;;;;;;;7.38;3.95;;;13.30;99.90;;;;;;5021141;28;20027;-91
2023/03/19 14:02:20;;;;;;;7.53;3.42;;;13.20;99.90;;;;;;5040339;28;20052;-91
2023/03/19 14:05:19;;;;;;;4.75;2.90;;;13.20;99.90;;;;;;5023190;28;20025;-91
2023/03/19 14:07:51;;;;;;;10.20;3.30;;;13.30;99.90;;;;;;5023465;28;20041;-91
2023/03/19 14:10:24;;;;;;;9.63;3.53;;;13.30;99.90;;;;;;5046202;28;20119;-90
2023/03/19 14:12:51;;;;;;;7.28;3.28;;;13.30;99.90;;;;;;5029173;28;20118;-91
2023/03/19 14:15:26;;;;;;;10.65;3.45;;;13.20;99.90;;;;;;5039971;28;20357;-92
2023/03/19 14:17:52;;;;;;;5.20;2.88;;;13.00;99.90;;;;;;5038886;28;20025;-91
2023/03/19 14:20:50;;;;;;;6.88;3.05;;;12.90;99.90;;;;;;5040153;28;20021;-91
2023/03/19 14:23:23;;;;;;;4.85;2.60;;;13.00;99.90;;;;;;5042402;28;20064;-91
2023/03/19 14:26:13;;;;;;;7.20;3.03;;;13.20;99.90;;;;;;5024574;28;20423;-92
2023/03/19 14:28:57;;;;;;;5.63;2.88;;;13.40;99.90;;;;;;5021897;28;20476;-91
2023/03/19 14:31:46;;;;;;;5.30;2.85;;;13.50;99.90;;;;;;5023654;28;20056;-91
2023/03/19 14:34:15;;;;;;;8.05;3.40;;;13.60;99.90;;;;;;5018076;28;20028;-92
2023/03/19 14:36:46;;;;;;;6.70;3.05;;;13.70;99.90;;;;;;5023329;28;20029;-91
2023/03/19 14:39:17;;;;;;;11.23;3.42;;;13.70;99.90;;;;;;5040059;28;20025;-91
2023/03/19 14:42:19;;;;;;;10.10;3.13;;;13.60;99.90;;;;;;5040287;28;20037;-91
2023/03/19 14:44:54;;;;;;;;;;;13.50;99.90;;;;;;5030359;28;20036;-91
2023/03/19 14:47:38;;;;;;;7.50;4.03;;;13.30;99.90;;;;;;5038274;28;19915;-91
2023/03/19 14:50:41;;;;;;;6.03;3.63;;;13.00;99.90;;;;;;5035245;28;20036;-91
2023/03/19 14:53:14;;;;;;;6.95;4.03;;;13.00;99.90;;;;;;5021522;28;20183;-92
2023/03/19 14:55:41;;;;;;;8.52;3.45;;;13.20;99.90;;;;;;5029799;28;20061;-90
2023/03/19 14:58:11;;;;;;;9.40;3.30;;;13.20;99.90;;;;;;5042647;28;20020;-91
2023/03/19 15:00:48;;;;;;;23.75;12.57;;;13.30;99.90;;;;;;5022708;28;20056;-91
2023/03/19 15:03:27;;;;;;;9.70;5.13;;;13.30;99.90;;;;;;5023258;28;20089;-91
2023/03/19 15:05:58;;;;;;;11.90;4.38;;;13.30;99.90;;;;;;5020948;28;20037;-91
2023/03/19 15:08:25;;;;;;;17.00;4.30;;;13.30;99.90;;;;;;5020614;28;20033;-92
2023/03/19 15:11:21;;;;;;;6.90;3.92;;;13.30;99.90;;;;;;5016467;28;20033;-91
2023/03/19 15:14:21;;;;;;;15.20;4.30;;;13.10;99.90;;;;;;5038752;28;20025;-92
2023/03/19 15:17:15;;;;;;;11.30;4.47;;;13.00;99.90;;;;;;5020618;28;20123;-92
2023/03/19 15:19:42;;;;;;;6.50;4.25;;;12.90;99.90;;;;;;5020295;28;20029;-92
2023/03/19 15:22:33;;;;;;;8.93;3.85;;;12.80;99.90;;;;;;5021429;28;20087;-91
2023/03/19 15:25:11;;;;;;;10.50;4.35;;;12.70;99.90;;;;;;5039064;28;20032;-91
2023/03/19 15:27:38;;;;;;;13.38;4.57;;;12.50;99.90;;;;;;5038852;28;20179;-91
2023/03/19 15:30:23;;;;;;;10.73;4.20;;;12.30;99.90;;;;;;5034915;28;20026;-91
2023/03/19 15:32:48;;;;;;;12.00;6.10;;;12.20;99.90;;;;;;5038161;28;20059;-89
2023/03/19 15:35:15;;;;;;;10.77;5.00;;;12.30;99.90;;;;;;5023555;28;20127;-92
2023/03/19 15:37:45;;;;;;;21.55;9.35;;;12.20;99.90;;;;;;5019810;28;20396;-91
2023/03/19 15:40:15;;;;;;;28.05;10.68;;;12.20;99.90;;;;;;5022340;28;20025;-91
2023/03/19 15:42:42;;;;;;;35.95;14.48;;;12.20;99.90;;;;;;5023399;28;20013;-91
2023/03/19 15:45:13;;;;;;;10.88;4.22;;;12.20;99.90;;;;;;5026443;28;20020;-91
2023/03/19 15:47:50;;;;;;;8.25;3.92;;;12.30;99.90;;;;;;5026894;28;20033;-91
2023/03/19 15:50:26;;;;;;;9.18;3.92;;;12.30;99.90;;;;;;5027098;28;20403;-90
2023/03/19 15:52:58;;;;;;;20.85;6.80;;;12.40;99.90;;;;;;5027382;28;20021;-91
2023/03/19 15:55:25;;;;;;;;;;;12.40;99.90;;;;;;5020023;28;20030;-91
2023/03/19 15:57:55;;;;;;;16.70;6.20;;;12.30;99.90;;;;;;5023375;28;20279;-91
2023/03/19 16:00:21;;;;;;;29.63;11.50;;;12.40;99.90;;;;;;5022979;28;20063;-91
2023/03/19 16:03:37;;;;;;;30.33;9.73;;;12.40;99.90;;;;;;5024299;28;20076;-96
2023/03/19 16:06:33;;;;;;;11.45;3.53;;;12.40;99.90;;;;;;5034910;28;20118;-84
2023/03/19 16:09:22;;;;;;;62.50;22.95;;;12.50;99.90;;;;;;5025159;28;20359;-86
2023/03/19 16:11:49;;;;;;;23.00;9.10;;;12.30;99.90;;;;;;5035056;28;20033;-86
2023/03/19 16:14:24;;;;;;;39.00;18.58;;;12.30;99.90;;;;;;5025152;28;20036;-90
2023/03/19 16:16:50;;;;;;;16.83;9.23;;;12.20;99.90;;;;;;5022531;28;20029;-86
2023/03/19 16:19:28;;;;;;;22.00;8.68;;;12.10;99.90;;;;;;5039351;28;20036;-89
2023/03/19 16:22:15;;;;;;;11.75;7.43;;;11.90;99.90;;;;;;5024913;28;20047;-88
2023/03/19 16:24:43;;;;;;;18.13;10.05;;;11.70;99.90;;;;;;5023973;28;20676;-90
2023/03/19 16:27:17;;;;;;;13.55;4.88;;;11.70;99.90;;;;;;5040838;28;20025;-90
2023/03/19 16:29:59;;;;;;;10.05;3.40;;;11.80;99.90;;;;;;5024643;28;20044;-90
2023/03/19 16:32:29;;;;;;;7.28;2.95;;;12.20;99.90;;;;;;5026495;28;20032;-90
2023/03/19 16:35:13;;;;;;;29.48;15.70;;;13.20;99.90;;;;;;5025746;28;20096;-90
2023/03/19 16:37:46;;;;;;;42.78;21.52;;;14.10;99.90;;;;;;5028031;28;20037;-91
2023/03/19 16:40:12;;;;;;;11.55;4.75;;;14.20;99.90;;;;;;5024598;28;20033;-91
2023/03/19 16:42:42;;;;;;;12.55;3.83;;;13.70;99.90;;;;;;5039586;28;20083;-91
2023/03/19 16:45:17;;;;;;;7.90;3.28;;;13.20;99.90;;;;;;5021039;28;20063;-91
2023/03/19 16:47:48;;;;;;;10.35;3.15;;;12.90;99.90;;;;;;5038112;28;20041;-91
2023/03/19 16:50:20;;;;;;;11.30;4.07;;;12.70;99.90;;;;;;5024562;28;20091;-90
2023/03/19 16:52:48;;;;;;;8.55;3.28;;;12.50;99.90;;;;;;5039405;28;20025;-90
2023/03/19 16:55:22;;;;;;;8.93;2.83;;;12.30;99.90;;;;;;5023256;28;20053;-90
2023/03/19 16:58:41;;;;;;;9.90;3.50;;;12.20;99.90;;;;;;5024205;28;20028;-89
2023/03/19 17:01:23;;;;;;;6.40;2.78;;;12.00;99.90;;;;;;5034654;28;20045;-89
2023/03/19 17:03:52;;;;;;;8.82;2.95;;;11.70;99.90;;;;;;5041520;28;20368;-90
2023/03/19 17:06:20;;;;;;;12.30;4.35;;;11.70;99.90;;;;;;5040486;28;20025;-90
2023/03/19 17:08:46;;;;;;;5.20;3.03;;;11.50;99.90;;;;;;5039837;28;20072;-89
2023/03/19 17:11:28;;;;;;;4.22;2.88;;;11.40;99.90;;;;;;5040817;28;20025;-91
2023/03/19 17:13:58;;;;;;;6.38;3.30;;;11.30;99.90;;;;;;5039676;28;20541;-91
2023/03/19 17:16:25;;;;;;;5.65;3.20;;;11.20;99.90;;;;;;5027380;28;20079;-91
2023/03/19 17:18:53;;;;;;;7.88;2.78;;;11.10;99.90;;;;;;5021115;28;20033;-90
2023/03/19 17:21:29;;;;;;;7.20;3.65;;;11.10;99.90;;;;;;5014802;28;20816;-90
2023/03/19 17:23:55;;;;;;;8.35;3.83;;;10.90;99.90;;;;;;5024311;28;20086;-90
2023/03/19 17:26:25;;;;;;;8.10;3.92;;;10.80;99.90;;;;;;5039765;28;20040;-90
2023/03/19 17:28:52;;;;;;;8.40;3.75;;;10.60;99.90;;;;;;5023236;28;20487;-90
2023/03/19 17:31:21;;;;;;;10.27;5.25;;;10.50;99.90;;;;;;5042315;28;20025;-90
2023/03/19 17:33:47;;;;;;;15.38;7.40;;;10.30;99.90;;;;;;5021083;28;20056;-89
2023/03/19 17:36:13;;;;;;;11.63;5.13;;;10.20;99.90;;;;;;5017994;28;20039;-87
2023/03/19 17:38:39;;;;;;;6.53;4.28;;;10.00;99.90;;;;;;5018808;28;20029;-87
2023/03/19 17:41:13;;;;;;;13.27;4.50;;;9.80;99.90;;;;;;5006247;28;20029;-87
2023/03/19 17:44:01;;;;;;;9.32;3.85;;;9.70;99.90;;;;;;5024156;28;20467;-88
2023/03/19 17:46:27;;;;;;;6.07;3.95;;;9.50;99.90;;;;;;5014761;28;20112;-87
2023/03/19 17:48:56;;;;;;;8.32;4.78;;;9.30;99.90;;;;;;5019656;28;20116;-88
2023/03/19 17:51:22;;;;;;;11.73;4.65;;;9.20;99.90;;;;;;5020889;28;20013;-88
2023/03/19 17:53:53;;;;;;;5.65;4.00;;;9.00;99.90;;;;;;5038062;28;20028;-88
2023/03/19 17:56:21;;;;;;;6.47;3.87;;;8.80;99.90;;;;;;5038203;28;20656;-88
2023/03/19 17:58:47;;;;;;;6.30;3.78;;;8.70;99.90;;;;;;5020865;28;20267;-87
2023/03/19 18:01:25;;;;;;;4.75;3.13;;;8.60;99.90;;;;;;5021537;28;20104;-87
2023/03/19 18:04:03;;;;;;;5.10;3.78;;;8.60;99.90;;;;;;5042852;28;20033;-87
2023/03/19 18:06:35;;;;;;;5.93;3.50;;;8.50;99.90;;;;;;5052971;28;20037;-88
2023/03/19 18:09:01;;;;;;;9.48;3.60;;;8.50;99.90;;;;;;5021588;28;20063;-88
2023/03/19 18:11:27;;;;;;;8.18;4.78;;;8.50;99.90;;;;;;5037562;28;20100;-87
2023/03/19 18:13:53;;;;;;;12.07;6.72;;;8.60;99.90;;;;;;5020812;28;20044;-88
2023/03/19 18:16:21;;;;;;;12.98;6.05;;;8.80;99.90;;;;;;5036290;28;20055;-87
2023/03/19 18:18:49;;;;;;;35.95;16.52;;;9.00;99.90;;;;;;5014150;28;20036;-88
2023/03/19 18:21:15;;;;;;;17.83;8.23;;;9.20;99.90;;;;;;5023615;28;20056;-87
2023/03/19 18:23:41;;;;;;;10.65;5.82;;;9.30;99.90;;;;;;5034628;28;20037;-88
2023/03/19 18:26:08;;;;;;;9.25;5.47;;;9.40;99.90;;;;;;5027484;28;20021;-89
2023/03/19 18:28:34;;;;;;;11.32;5.50;;;9.40;99.90;;;;;;5038501;28;20056;-89
2023/03/19 18:31:00;;;;;;;8.75;5.95;;;9.20;99.90;;;;;;5021726;28;20115;-89
2023/03/19 18:33:29;;;;;;;9.48;6.45;;;9.10;99.90;;;;;;5039066;28;20060;-89
2023/03/19 18:35:55;;;;;;;8.07;6.35;;;8.90;99.90;;;;;;5014574;28;20064;-89
2023/03/19 18:38:24;;;;;;;13.55;6.72;;;8.80;99.90;;;;;;5040887;28;20052;-88
2023/03/19 18:40:51;;;;;;;13.48;7.68;;;8.70;99.90;;;;;;5025755;28;20519;-89
2023/03/19 18:43:17;;;;;;;10.65;7.40;;;8.50;99.90;;;;;;5029372;28;20119;-89
2023/03/19 18:45:45;;;;;;;10.23;5.97;;;8.40;99.90;;;;;;5022440;28;20044;-89
2023/03/19 18:48:25;;;;;;;14.82;7.30;;;8.20;99.90;;;;;;5021706;28;20029;-88
2023/03/19 18:50:52;;;;;;;11.60;6.65;;;8.10;99.90;;;;;;5038783;28;20052;-89
2023/03/19 18:53:18;;;;;;;21.63;12.15;;;7.90;99.90;;;;;;5021354;28;20028;-89
2023/03/19 18:55:44;;;;;;;21.60;12.02;;;7.90;99.90;;;;;;5021115;28;20487;-89
2023/03/19 18:58:22;;;;;;;22.08;11.70;;;7.80;99.90;;;;;;5040201;28;20028;-88
2023/03/19 19:00:49;;;;;;;15.35;9.80;;;7.70;99.90;;;;;;5018486;28;20056;-88
2023/03/19 19:03:27;;;;;;;18.77;8.07;;;7.60;99.90;;;;;;5023708;28;20028;-88
2023/03/19 19:05:54;;;;;;;17.27;9.48;;;7.60;99.90;;;;;;5035462;28;20127;-90
2023/03/19 19:08:20;;;;;;;11.88;9.00;;;7.50;99.90;;;;;;5024221;28;20052;-89
2023/03/19 19:10:50;;;;;;;13.43;9.10;;;7.30;99.90;;;;;;5031199;28;20071;-88
2023/03/19 19:13:20;;;;;;;15.98;9.52;;;7.30;99.90;;;;;;5020749;28;20029;-88
2023/03/19 19:15:46;;;;;;;16.83;9.68;;;7.20;99.90;;;;;;5034724;28;20028;-87
2023/03/19 19:18:24;;;;;;;12.82;9.82;;;7.20;99.90;;;;;;5029149;28;20037;-88
2023/03/19 19:20:52;;;;;;;14.27;9.63;;;7.20;99.90;;;;;;5037088;28;20029;-88
2023/03/19 19:23:19;;;;;;;17.00;9.43;;;7.10;99.90;;;;;;5039062;28;20540;-89
2023/03/19 19:25:50;;;;;;;14.18;9.75;;;7.00;99.90;;;;;;5022431;28;20033;-89
2023/03/19 19:28:26;;;;;;;12.75;9.68;;;7.00;99.90;;;;;;5036665;28;20028;-89
2023/03/19 19:30:56;;;;;;;20.90;11.15;;;6.90;99.90;;;;;;5019328;28;20036;-88
2023/03/19 19:33:33;;;;;;;16.80;10.35;;;6.90;99.90;;;;;;5014762;28;20490;-88
2023/03/19 19:36:00;;;;;;;16.25;9.85;;;6.80;99.90;;;;;;5037697;28;20379;-88
2023/03/19 19:38:27;;;;;;;19.42;10.55;;;6.70;99.90;;;;;;5021028;28;20059;-89
2023/03/19 19:40:58;;;;;;;14.50;10.70;;;6.60;99.90;;;;;;5037953;28;20511;-89
2023/03/19 19:43:27;;;;;;;16.25;10.40;;;6.50;99.90;;;;;;5014432;28;20041;-88
2023/03/19 19:45:55;;;;;;;16.45;11.73;;;6.40;99.90;;;;;;5037273;28;20021;-88
2023/03/19 19:48:38;;;;;;;20.73;13.68;;;6.40;99.90;;;;;;5024397;28;20551;-87
2023/03/19 19:51:06;;;;;;;27.33;15.13;;;6.40;99.90;;;;;;5018114;28;20053;-89
2023/03/19 19:53:33;;;;;;;24.77;15.73;;;6.60;99.90;;;;;;5021186;28;20530;-89
2023/03/19 19:56:11;;;;;;;26.10;15.88;;;6.60;99.90;;;;;;5040592;28;20074;-89
2023/03/19 19:58:37;;;;;;;22.60;15.23;;;6.50;99.90;;;;;;5026312;28;20056;-89
2023/03/19 20:01:05;;;;;;;25.27;15.05;;;6.40;99.90;;;;;;5031881;28;20044;-90
2023/03/19 20:03:34;;;;;;;23.33;15.35;;;6.10;99.90;;;;;;5029729;28;20033;-89
2023/03/19 20:06:04;;;;;;;23.90;15.40;;;6.00;99.90;;;;;;5022276;28;20043;-89
2023/03/19 20:08:30;;;;;;;28.88;15.98;;;5.90;99.90;;;;;;5023092;28;20036;-89
2023/03/19 20:10:56;;;;;;;27.08;15.95;;;5.80;99.90;;;;;;5025925;28;20025;-89
2023/03/19 20:13:28;;;;;;;26.83;17.55;;;5.70;99.90;;;;;;5032952;28;20055;-89
2023/03/19 20:15:56;;;;;;;29.38;18.40;;;5.70;99.90;;;;;;5043515;28;20025;-87
2023/03/19 20:22:58;;;;;;;28.52;18.58;;;5.60;99.90;;;;;;5069754;28;20043;-89
2023/03/19 20:25:28;;;;;;;26.42;17.33;;;5.80;99.90;;;;;;5044386;28;20112;-89
2023/03/19 20:28:02;;;;;;;24.98;16.35;;;5.80;99.90;;;;;;5044902;28;20280;-89
2023/03/19 20:30:37;;;;;;;24.95;14.68;;;5.70;99.90;;;;;;5061313;28;20092;-89
2023/03/19 20:33:05;;;;;;;26.10;14.82;;;5.60;99.90;;;;;;5061564;28;20059;-89
2023/03/19 20:35:36;;;;;;;27.10;15.45;;;5.60;99.90;;;;;;5051653;28;20056;-89
2023/03/19 20:38:03;;;;;;;28.05;17.33;;;5.50;99.90;;;;;;5028800;28;20033;-89
2023/03/19 20:40:52;;;;;;;28.95;17.17;;;5.50;99.90;;;;;;5036018;28;20036;-88
2023/03/19 20:43:25;;;;;;;31.80;18.17;;;5.60;99.90;;;;;;5043534;28;20048;-88
2023/03/19 20:45:58;;;;;;;32.03;18.10;;;5.50;99.90;;;;;;5050379;28;20017;-89
2023/03/19 20:48:26;;;;;;;31.10;18.13;;;5.40;99.90;;;;;;5052105;28;20043;-89
2023/03/19 20:50:54;;;;;;;33.65;20.13;;;5.40;99.90;;;;;;5049467;28;20056;-90
2023/03/19 20:53:23;;;;;;;37.65;20.63;;;5.30;99.90;;;;;;5042848;28;20044;-90
2023/03/19 20:55:52;;;;;;;30.50;20.75;;;5.30;99.90;;;;;;5053219;28;20025;-89
2023/03/19 20:58:28;;;;;;;32.20;20.52;;;5.30;99.90;;;;;;5026325;28;20064;-90
2023/03/19 21:00:58;;;;;;;37.67;21.58;;;5.30;99.90;;;;;;5049434;28;20410;-89
2023/03/19 21:03:30;;;;;;;36.90;19.95;;;5.30;99.90;;;;;;5001569;28;20064;-89
2023/03/19 21:06:05;;;;;;;32.10;19.65;;;5.20;99.90;;;;;;5038368;28;20013;-88
2023/03/19 21:09:02;;;;;;;36.30;20.85;;;5.20;99.90;;;;;;5072428;28;20013;-89
2023/03/19 21:11:40;;;;;;;29.88;18.40;;;5.30;99.90;;;;;;5028120;28;20051;-90
2023/03/19 21:14:17;;;;;;;28.15;16.33;;;5.30;99.90;;;;;;5036863;28;20040;-90
2023/03/19 21:16:54;;;;;;;25.02;16.35;;;5.20;99.90;;;;;;5061241;28;20013;-89
2023/03/19 21:20:06;;;;;;;25.98;15.82;;;5.20;99.90;;;;;;5057504;28;20021;-89
2023/03/19 21:22:43;;;;;;;21.08;12.45;;;5.00;99.90;;;;;;5046118;28;20031;-89
2023/03/19 21:25:17;;;;;;;17.35;11.10;;;4.90;99.90;;;;;;5043590;28;20041;-89
2023/03/19 21:27:46;;;;;;;19.35;9.77;;;4.90;99.90;;;;;;5022108;28;20046;-88
2023/03/19 21:30:17;;;;;;;28.65;13.77;;;4.90;99.90;;;;;;5022143;28;20025;-89
2023/03/19 21:32:43;;;;;;;26.10;12.97;;;4.90;99.90;;;;;;5041317;28;20021;-89
2023/03/19 21:35:20;;;;;;;25.13;13.13;;;4.80;99.90;;;;;;5027982;28;20283;-88
2023/03/19 21:37:46;;;;;;;19.95;12.10;;;4.90;99.90;;;;;;5039680;28;20419;-89
2023/03/19 21:40:18;;;;;;;21.65;11.85;;;4.90;99.90;;;;;;5042310;28;20086;-89
2023/03/19 21:42:53;;;;;;;17.48;10.40;;;4.90;99.90;;;;;;5035536;28;20029;-90
2023/03/19 21:45:31;;;;;;;22.33;10.30;;;5.00;99.90;;;;;;5049344;28;20086;-89
2023/03/19 21:48:12;;;;;;;18.38;10.13;;;5.00;99.90;;;;;;5023531;28;20040;-89
2023/03/19 21:50:38;;;;;;;13.43;7.93;;;5.10;99.90;;;;;;5023657;28;20033;-88
2023/03/19 21:53:10;;;;;;;14.50;8.88;;;5.10;99.90;;;;;;5023515;28;20017;-89
2023/03/19 21:55:37;;;;;;;15.07;9.93;;;5.20;99.90;;;;;;5021457;28;20052;-88
2023/03/19 21:58:03;;;;;;;17.85;10.70;;;5.60;99.90;;;;;;5022973;28;20431;-89
2023/03/19 22:00:30;;;;;;;21.63;9.90;;;5.80;99.90;;;;;;5041643;28;20395;-89
2023/03/19 22:02:56;;;;;;;16.52;10.35;;;5.90;99.90;;;;;;5023783;28;20024;-88
2023/03/19 22:05:27;;;;;;;17.23;10.57;;;5.90;99.90;;;;;;5015778;28;20021;-89
2023/03/19 22:07:54;;;;;;;20.33;9.95;;;5.80;99.90;;;;;;5006750;28;20032;-89
2023/03/19 22:10:26;;;;;;;15.00;9.43;;;5.70;99.90;;;;;;5023893;28;20084;-89
2023/03/19 22:12:55;;;;;;;19.48;9.88;;;5.60;99.90;;;;;;5056753;28;20052;-90
2023/03/19 22:15:36;;;;;;;18.40;10.77;;;5.50;99.90;;;;;;5026479;28;20021;-89
2023/03/19 22:18:05;;;;;;;24.45;13.02;;;5.50;99.90;;;;;;5037108;28;20491;-89
2023/03/19 22:20:59;;;;;;;24.42;14.75;;;5.50;99.90;;;;;;5039435;28;20025;-89
2023/03/19 22:23:25;;;;;;;33.20;18.73;;;5.60;99.90;;;;;;5039316;28;20047;-88
2023/03/19 22:25:52;;;;;;;39.35;19.63;;;5.70;99.90;;;;;;5039001;28;20029;-88
2023/03/19 22:28:31;;;;;;;45.45;21.88;;;5.90;99.90;;;;;;5022027;28;20044;-90
2023/03/19 22:31:43;;;;;;;50.08;23.60;;;6.10;99.90;;;;;;5019099;28;20120;-89
2023/03/19 22:34:21;;;;;;;65.88;27.73;;;6.10;99.90;;;;;;5020866;28;20021;-88
2023/03/19 22:36:47;;;;;;;64.47;31.25;;;6.10;99.90;;;;;;5022284;28;20147;-88
2023/03/19 22:39:13;;;;;;;65.43;30.52;;;6.10;99.90;;;;;;5021664;28;20025;-88
2023/03/19 22:41:44;;;;;;;79.22;36.35;;;6.20;99.90;;;;;;5038165;28;20079;-89
2023/03/19 22:44:16;;;;;;;90.28;40.03;;;6.20;99.90;;;;;;5021601;28;20508;-89
2023/03/19 22:47:01;;;;;;;81.85;38.22;;;6.40;99.90;;;;;;5021597;28;20488;-89
2023/03/19 22:49:28;;;;;;;97.00;42.35;;;6.30;99.90;;;;;;5022044;28;20152;-89
2023/03/19 22:51:55;;;;;;;108.35;44.63;;;6.30;99.90;;;;;;5021101;28;20048;-89
2023/03/19 22:54:21;;;;;;;136.45;62.15;;;6.30;99.90;;;;;;5021645;28;20021;-89
2023/03/19 22:56:46;;;;;;;166.82;75.40;;;6.40;99.90;;;;;;5038995;28;20029;-89
2023/03/19 22:59:12;;;;;;;201.20;90.55;;;6.50;99.90;;;;;;5021790;28;20036;-89
2023/03/19 23:01:46;;;;;;;158.43;70.05;;;6.50;99.90;;;;;;5038067;28;20028;-89
2023/03/19 23:04:21;;;;;;;141.85;58.50;;;6.50;99.90;;;;;;5022629;28;20029;-89